Terminal Aerodrome Forecast
Issued by NWS Denver/Boulder, CO

Home | Current Version | Previous Version | Text Only | Print | Product List | Glossary On
Versions: 1 2 3 4 5 6 7 8 9 10 11 12 13 14 15 16 17 18 19 20 21 22 23 24 25 26 27 28 29 30 31 32 33 34 35 36 37 38 39 40 41 42 43 44 45 46 47 48 49 50
972
FTUS45 KBOU 151452 AAA
TAFDEN
TAF AMD
KDEN 151452Z 1515/1618 21015KT P6SM FEW120 FEW220
     FM151800 25010KT P6SM FEW120 SCT220
     FM160200 22012KT P6SM FEW150 SCT220
     FM161000 23008KT P6SM BKN140
     FM161600 33008KT P6SM OVC140=

USA.gov is the U.S. government's official web portal to all federal, state and local government web resources and services.